createdAt,value
2022-09-15T00:19:14.412Z,82.88
2022-09-15T00:47:57.842Z,82.9
2022-09-15T01:46:47.559Z,86.66
2022-09-15T02:15:49.156Z,85.62
2022-09-15T02:44:38.839Z,84.58
2022-09-15T03:13:29.973Z,85.58
2022-09-15T03:42:25.529Z,85.74
2022-09-15T04:11:24.434Z,86.16
2022-09-15T04:40:15.980Z,88.89
2022-09-15T05:09:11.031Z,89.5
2022-09-15T05:37:25.426Z,88.52
2022-09-15T06:06:19.344Z,88.43
2022-09-15T06:35:50.330Z,90.31
2022-09-15T07:33:34.111Z,91.05
2022-09-15T08:30:55.355Z,85.77
2022-09-15T09:00:19.330Z,87.24
2022-09-15T09:28:52.632Z,87.88
2022-09-15T09:57:09.942Z,86.46
2022-09-15T10:26:01.857Z,86.75
2022-09-15T10:54:24.031Z,85.94
2022-09-15T11:22:50.201Z,87.28
2022-09-15T11:51:13.379Z,82.06
2022-09-15T12:20:00.631Z,78.31
2022-09-15T12:48:16.686Z,75.11
2022-09-15T13:17:07.478Z,67.47
2022-09-15T13:45:58.733Z,67.55
2022-09-15T14:14:35.752Z,66.83
2022-09-15T14:43:05.556Z,65.11
2022-09-15T15:11:55.909Z,61.94
2022-09-15T15:40:34.276Z,62.64
2022-09-15T16:09:18.497Z,63.96
2022-09-15T16:37:58.477Z,63.19
2022-09-15T17:06:44.379Z,66.79
2022-09-15T17:35:18.812Z,72.58
2022-09-15T18:04:04.322Z,75.75
2022-09-15T18:32:37.134Z,77.21
2022-09-15T19:01:14.327Z,78.07
2022-09-15T19:29:44.177Z,79.75
2022-09-15T19:58:25.516Z,79.24
2022-09-15T20:55:54.710Z,83.03
2022-09-15T21:24:32.200Z,83.71
2022-09-15T21:53:01.951Z,84.28
2022-09-15T22:21:43.383Z,84.63
2022-09-15T22:50:04.727Z,84.96
2022-09-15T23:18:44.387Z,86.34
2022-09-15T23:47:04.402Z,85.61
